Time;durP1;ratioP1;P1;durP2;ratioP2;P2;SDS_P1;SDS_P2;PMS_P1;PMS_P2;Temp;Humidity;BMP_temperature;BMP_pressure;BME280_temperature;BME280_humidity;BME280_pressure;Samples;Min_cycle;Max_cycle;Signal;HPM_P1;HPM_P2
2022/04/13 00:02:06;;;;;;;22.83;16.98;;;13.00;99.90;;;;;;5070180;28;20083;-67
2022/04/13 00:04:32;;;;;;;23.80;17.15;;;13.00;99.90;;;;;;5068733;28;20133;-67
2022/04/13 00:06:58;;;;;;;20.30;15.77;;;13.00;99.90;;;;;;5067460;28;20119;-67
2022/04/13 00:09:24;;;;;;;24.88;19.02;;;12.90;99.90;;;;;;5070139;28;20438;-67
2022/04/13 00:11:52;;;;;;;22.75;17.67;;;12.90;99.90;;;;;;5069563;28;20055;-67
2022/04/13 00:14:22;;;;;;;20.25;15.68;;;12.80;99.90;;;;;;5069353;28;20087;-67
2022/04/13 00:16:48;;;;;;;19.10;15.25;;;12.80;99.90;;;;;;5069900;28;20040;-67
2022/04/13 00:19:14;;;;;;;25.08;17.13;;;12.70;99.90;;;;;;5069995;28;20683;-67
2022/04/13 00:21:40;;;;;;;29.02;18.05;;;12.70;99.90;;;;;;5069696;28;20045;-67
2022/04/13 00:24:06;;;;;;;25.08;18.23;;;12.70;99.90;;;;;;5069775;28;20051;-67
2022/04/13 00:26:32;;;;;;;18.88;16.20;;;12.60;99.90;;;;;;5067659;28;20052;-67
2022/04/13 00:28:58;;;;;;;20.40;17.95;;;12.50;99.90;;;;;;5068285;28;20052;-67
2022/04/13 00:31:24;;;;;;;24.92;19.38;;;12.30;99.90;;;;;;5069719;28;20044;-67
2022/04/13 00:33:49;;;;;;;23.35;17.52;;;12.20;99.90;;;;;;5069641;28;20041;-67
2022/04/13 00:36:15;;;;;;;25.77;17.75;;;12.30;99.90;;;;;;5068060;28;20037;-67
2022/04/13 00:38:41;;;;;;;25.38;16.45;;;12.30;99.90;;;;;;5069470;28;20044;-67
2022/04/13 00:41:06;;;;;;;25.95;18.38;;;12.30;99.90;;;;;;5069178;28;20045;-67
2022/04/13 00:43:32;;;;;;;21.27;16.08;;;12.20;99.90;;;;;;5065707;28;20048;-67
2022/04/13 00:45:57;;;;;;;31.90;15.88;;;12.20;99.90;;;;;;5067532;28;20428;-67
2022/04/13 00:48:36;;;;;;;26.85;17.25;;;12.10;99.90;;;;;;5069222;28;20105;-67
2022/04/13 00:51:03;;;;;;;23.63;16.90;;;12.10;99.90;;;;;;5067728;28;20174;-67
2022/04/13 00:53:30;;;;;;;20.00;17.48;;;12.00;99.90;;;;;;5069288;28;20044;-67
2022/04/13 00:55:58;;;;;;;21.80;17.40;;;12.00;99.90;;;;;;5032569;28;1053769;-67
2022/04/13 00:58:27;;;;;;;;;;;12.00;99.90;;;;;;5067297;28;20063;-67
2022/04/13 01:00:54;;;;;;;21.77;17.58;;;12.00;99.90;;;;;;5069978;28;20365;-67
2022/04/13 01:03:23;;;;;;;24.90;18.20;;;11.90;99.90;;;;;;5070135;28;20033;-67
2022/04/13 01:05:50;;;;;;;24.20;18.65;;;11.90;99.90;;;;;;5069623;28;20098;-67
2022/04/13 01:08:17;;;;;;;22.08;17.23;;;11.70;99.90;;;;;;5052481;28;20160;-67
2022/04/13 01:10:45;;;;;;;21.27;17.60;;;11.70;99.90;;;;;;5069644;28;20040;-67
2022/04/13 01:13:11;;;;;;;20.20;17.13;;;11.70;99.90;;;;;;5067230;28;20490;-67
2022/04/13 01:15:37;;;;;;;20.08;17.02;;;11.70;99.90;;;;;;5066924;28;20052;-67
2022/04/13 01:18:03;;;;;;;20.23;17.13;;;11.70;99.90;;;;;;5061232;28;20045;-67
2022/04/13 01:20:29;;;;;;;26.42;18.15;;;11.70;99.90;;;;;;5069551;28;20052;-67
2022/04/13 01:22:55;;;;;;;24.05;18.35;;;11.60;99.90;;;;;;5069318;28;20048;-67
2022/04/13 01:25:21;;;;;;;20.17;16.67;;;11.60;99.90;;;;;;5068063;28;20060;-67
2022/04/13 01:27:47;;;;;;;21.83;16.95;;;11.60;99.90;;;;;;5058085;28;20029;-67
2022/04/13 01:30:14;;;;;;;21.67;17.25;;;11.50;99.90;;;;;;5069304;28;20071;-67
2022/04/13 01:32:39;;;;;;;26.92;19.95;;;11.50;99.90;;;;;;5064922;28;20036;-67
2022/04/13 01:35:08;;;;;;;27.92;18.23;;;11.50;99.90;;;;;;5061058;28;20048;-67
2022/04/13 01:37:34;;;;;;;26.00;17.38;;;11.50;99.90;;;;;;5066409;28;20037;-67
2022/04/13 01:40:00;;;;;;;23.13;18.17;;;11.40;99.90;;;;;;5069772;28;20054;-67
2022/04/13 01:42:26;;;;;;;21.17;17.45;;;11.40;99.90;;;;;;5068205;28;20079;-67
2022/04/13 01:44:53;;;;;;;21.10;17.30;;;11.40;99.90;;;;;;5068661;28;20556;-67
2022/04/13 01:47:18;;;;;;;23.13;17.85;;;11.40;99.90;;;;;;5068752;28;20044;-67
2022/04/13 01:49:44;;;;;;;25.85;18.42;;;11.40;99.90;;;;;;5068920;28;20040;-67
2022/04/13 01:52:11;;;;;;;24.48;19.80;;;11.40;99.90;;;;;;5068349;28;20127;-67
2022/04/13 01:54:37;;;;;;;22.63;17.90;;;11.30;99.90;;;;;;5068893;28;20050;-67
2022/04/13 01:57:03;;;;;;;30.13;18.98;;;11.40;99.90;;;;;;5068565;28;20059;-67
2022/04/13 01:59:29;;;;;;;26.10;20.05;;;11.40;99.90;;;;;;5057667;28;20067;-67
2022/04/13 02:01:55;;;;;;;28.45;21.05;;;11.30;99.90;;;;;;5067713;28;20405;-67
2022/04/13 02:04:23;;;;;;;27.60;20.88;;;11.30;99.90;;;;;;5066110;28;20194;-67
2022/04/13 02:06:50;;;;;;;30.27;20.17;;;11.30;99.90;;;;;;5068301;28;20048;-67
2022/04/13 02:09:17;;;;;;;26.75;21.55;;;11.30;99.90;;;;;;5068257;28;20153;-66
2022/04/13 02:11:43;;;;;;;28.67;20.40;;;11.30;99.90;;;;;;5069467;28;20066;-66
2022/04/13 02:14:09;;;;;;;31.92;21.40;;;11.30;99.90;;;;;;5068766;28;20067;-67
2022/04/13 02:16:35;;;;;;;25.15;20.75;;;11.20;99.90;;;;;;5066820;28;20182;-67
2022/04/13 02:19:01;;;;;;;41.13;23.52;;;11.20;99.90;;;;;;5061657;28;20402;-67
2022/04/13 02:21:27;;;;;;;31.55;20.88;;;11.20;99.90;;;;;;5068549;28;20048;-67
2022/04/13 02:23:54;;;;;;;30.65;23.08;;;11.20;99.90;;;;;;5068733;28;20041;-66
2022/04/13 02:26:22;;;;;;;25.17;20.88;;;11.20;99.90;;;;;;5068708;28;20044;-67
2022/04/13 02:28:48;;;;;;;25.45;19.85;;;11.10;99.90;;;;;;5068143;28;20052;-67
2022/04/13 02:31:14;;;;;;;34.28;20.67;;;11.10;99.90;;;;;;5063367;28;20052;-67
2022/04/13 02:33:39;;;;;;;29.10;23.23;;;11.10;99.90;;;;;;5072226;28;20036;-67
2022/04/13 02:36:06;;;;;;;28.33;20.75;;;11.10;99.90;;;;;;5067553;28;20040;-67
2022/04/13 02:38:32;;;;;;;29.92;20.38;;;11.00;99.90;;;;;;5068634;28;20040;-67
2022/04/13 02:40:58;;;;;;;31.52;21.42;;;11.00;99.90;;;;;;5068154;28;20135;-67
2022/04/13 02:43:28;;;;;;;27.60;19.83;;;11.00;99.90;;;;;;5064649;28;20127;-67
2022/04/13 02:45:54;;;;;;;25.73;20.95;;;10.90;99.90;;;;;;5061215;28;20454;-67
2022/04/13 02:48:20;;;;;;;26.35;20.92;;;10.90;99.90;;;;;;5067898;28;20574;-67
2022/04/13 02:50:46;;;;;;;28.88;21.60;;;10.90;99.90;;;;;;5054964;28;20037;-67
2022/04/13 02:53:11;;;;;;;23.70;19.90;;;10.80;99.90;;;;;;5050195;28;20097;-67
2022/04/13 02:55:37;;;;;;;32.80;22.02;;;10.80;99.90;;;;;;5067712;28;20129;-67
2022/04/13 02:58:03;;;;;;;23.92;19.23;;;10.80;99.90;;;;;;5064660;28;20051;-67
2022/04/13 03:00:29;;;;;;;30.73;21.58;;;10.80;99.90;;;;;;5068261;28;20049;-67
2022/04/13 03:02:55;;;;;;;31.20;22.67;;;10.80;99.90;;;;;;5067463;28;20044;-67
2022/04/13 03:05:21;;;;;;;30.52;21.25;;;10.70;99.90;;;;;;5068199;28;20533;-67
2022/04/13 03:07:47;;;;;;;32.13;21.77;;;10.70;99.90;;;;;;5064580;28;20127;-67
2022/04/13 03:10:13;;;;;;;28.63;22.98;;;10.70;99.90;;;;;;5067818;28;20398;-67
2022/04/13 03:12:38;;;;;;;37.28;21.98;;;10.70;99.90;;;;;;5068734;28;20052;-67
2022/04/13 03:15:07;;;;;;;26.60;22.00;;;10.60;99.90;;;;;;5068085;28;20044;-67
2022/04/13 03:17:33;;;;;;;26.75;21.13;;;10.60;99.90;;;;;;5068101;28;20052;-67
2022/04/13 03:19:59;;;;;;;32.75;23.30;;;10.60;99.90;;;;;;5068711;28;20115;-67
2022/04/13 03:22:25;;;;;;;28.20;21.00;;;10.50;99.90;;;;;;5067254;28;20086;-67
2022/04/13 03:24:51;;;;;;;36.47;21.50;;;10.40;99.90;;;;;;5067156;28;20421;-67
2022/04/13 03:27:20;;;;;;;39.78;23.13;;;10.50;99.90;;;;;;5068227;28;20048;-67
2022/04/13 03:29:46;;;;;;;30.13;23.60;;;10.40;99.90;;;;;;5067332;28;20502;-67
2022/04/13 03:32:12;;;;;;;34.13;23.33;;;10.40;99.90;;;;;;5067786;28;20036;-67
2022/04/13 03:34:37;;;;;;;35.85;23.58;;;10.40;99.90;;;;;;5067108;28;20045;-67
2022/04/13 03:37:04;;;;;;;35.35;23.13;;;10.40;99.90;;;;;;5067471;28;20494;-67
2022/04/13 03:39:30;;;;;;;30.85;22.60;;;10.40;99.90;;;;;;5066553;28;20052;-67
2022/04/13 03:41:56;;;;;;;27.80;24.08;;;10.40;99.90;;;;;;5066701;28;20088;-67
2022/04/13 03:44:22;;;;;;;30.02;22.35;;;10.30;99.90;;;;;;5067800;28;20040;-67
2022/04/13 03:46:48;;;;;;;31.08;23.67;;;10.20;99.90;;;;;;5067018;28;20149;-67
2022/04/13 03:49:14;;;;;;;32.90;25.25;;;10.30;99.90;;;;;;5071884;28;20123;-67
2022/04/13 03:51:41;;;;;;;29.83;24.55;;;10.30;99.90;;;;;;5070737;28;20120;-67
2022/04/13 03:54:07;;;;;;;37.25;24.88;;;10.30;99.90;;;;;;5058261;28;20049;-67
2022/04/13 03:56:33;;;;;;;34.30;23.42;;;10.30;99.90;;;;;;5051679;28;20092;-67
2022/04/13 03:59:01;;;;;;;31.45;23.75;;;10.30;99.90;;;;;;5051627;28;20701;-67
2022/04/13 04:01:27;;;;;;;27.88;23.15;;;10.30;99.90;;;;;;5051496;28;20056;-67
2022/04/13 04:03:53;;;;;;;28.88;24.02;;;10.30;99.90;;;;;;5054252;28;20041;-67
2022/04/13 04:06:19;;;;;;;32.78;23.55;;;10.40;99.90;;;;;;5071010;28;20052;-67
2022/04/13 04:08:46;;;;;;;34.28;25.27;;;10.30;99.90;;;;;;5069218;28;20105;-67
2022/04/13 04:11:12;;;;;;;34.45;23.63;;;10.40;99.90;;;;;;5053647;28;20204;-67
2022/04/13 04:13:38;;;;;;;32.03;26.13;;;10.40;99.90;;;;;;5071391;28;20789;-67
2022/04/13 04:16:04;;;;;;;33.78;27.17;;;10.40;99.90;;;;;;5070558;28;20044;-67
2022/04/13 04:18:30;;;;;;;34.30;25.92;;;10.40;99.90;;;;;;5064089;28;20049;-67
2022/04/13 04:20:55;;;;;;;31.50;24.30;;;10.50;99.90;;;;;;5051604;28;20052;-67
2022/04/13 04:23:21;;;;;;;31.90;25.38;;;10.50;99.90;;;;;;5051440;28;20048;-67
2022/04/13 04:25:47;;;;;;;37.25;27.42;;;10.50;99.90;;;;;;5051340;28;20053;-67
2022/04/13 04:28:13;;;;;;;34.83;26.67;;;10.60;99.90;;;;;;5051367;28;20047;-67
2022/04/13 04:30:40;;;;;;;35.50;26.00;;;10.60;99.90;;;;;;5050498;28;20045;-67
2022/04/13 04:33:06;;;;;;;39.13;28.13;;;10.60;99.90;;;;;;5066274;28;20672;-67
2022/04/13 04:35:35;;;;;;;50.60;27.48;;;10.60;99.90;;;;;;5070842;28;20048;-67
2022/04/13 04:38:02;;;;;;;38.55;26.38;;;10.60;99.90;;;;;;5071271;28;20056;-67
2022/04/13 04:40:28;;;;;;;35.42;26.05;;;10.70;99.90;;;;;;5070584;28;20050;-67
2022/04/13 04:42:54;;;;;;;43.33;28.67;;;10.70;99.90;;;;;;5070768;28;20040;-67
2022/04/13 04:45:21;;;;;;;42.65;30.10;;;10.70;99.90;;;;;;5069885;28;20115;-67
2022/04/13 04:47:47;;;;;;;46.47;29.33;;;10.70;99.90;;;;;;5069938;28;20048;-67
2022/04/13 04:50:14;;;;;;;44.58;31.50;;;10.70;99.90;;;;;;5070124;28;20122;-67
2022/04/13 04:52:43;;;;;;;49.13;31.52;;;10.80;99.90;;;;;;5069588;28;20094;-67
2022/04/13 04:55:13;;;;;;;45.63;28.98;;;10.70;99.90;;;;;;5070778;28;20044;-67
2022/04/13 04:57:39;;;;;;;51.47;31.02;;;10.80;99.90;;;;;;5070601;28;20056;-67
2022/04/13 05:00:08;;;;;;;41.40;29.42;;;10.80;99.90;;;;;;5068426;28;20051;-67
2022/04/13 05:02:33;;;;;;;;;;;10.70;99.90;;;;;;5069639;28;20047;-67
2022/04/13 05:04:59;;;;;;;36.28;27.75;;;10.70;99.90;;;;;;5065661;28;19920;-67
2022/04/13 05:07:24;;;;;;;43.17;29.85;;;10.70;99.90;;;;;;5069317;28;20098;-67
2022/04/13 05:09:50;;;;;;;34.58;27.02;;;10.70;99.90;;;;;;5070643;28;20040;-67
2022/04/13 05:12:16;;;;;;;43.88;28.00;;;10.70;99.90;;;;;;5069936;28;20412;-67
2022/04/13 05:14:41;;;;;;;42.92;30.13;;;10.70;99.90;;;;;;5052103;28;20048;-67
2022/04/13 05:17:07;;;;;;;51.72;30.00;;;10.70;99.90;;;;;;5061173;28;20459;-67
2022/04/13 05:19:34;;;;;;;40.38;30.60;;;10.70;99.90;;;;;;5069240;28;20566;-67
2022/04/13 05:21:59;;;;;;;46.70;31.80;;;10.70;99.90;;;;;;5070002;28;20056;-67
2022/04/13 05:24:25;;;;;;;40.15;31.08;;;10.70;99.90;;;;;;5069658;28;20040;-67
2022/04/13 05:26:51;;;;;;;44.05;32.33;;;10.70;99.90;;;;;;5070018;28;20093;-67
2022/04/13 05:29:16;;;;;;;39.65;29.92;;;10.70;99.90;;;;;;5070199;28;20498;-67
2022/04/13 05:31:42;;;;;;;49.72;33.22;;;10.70;99.90;;;;;;5067538;28;20460;-67
2022/04/13 05:34:08;;;;;;;39.10;28.90;;;10.80;99.90;;;;;;5068912;28;20055;-67
2022/04/13 05:36:34;;;;;;;45.85;30.27;;;10.80;99.90;;;;;;5069490;28;20139;-67
2022/04/13 05:39:00;;;;;;;49.88;31.98;;;10.80;99.90;;;;;;5069806;28;20127;-67
2022/04/13 05:41:25;;;;;;;48.55;33.63;;;10.80;99.90;;;;;;5063313;28;20148;-67
2022/04/13 05:43:51;;;;;;;39.72;28.73;;;10.90;99.90;;;;;;5057843;28;20049;-66
2022/04/13 05:46:17;;;;;;;46.88;31.30;;;10.90;99.90;;;;;;5066920;28;20048;-66
2022/04/13 05:48:42;;;;;;;50.28;32.60;;;11.00;99.90;;;;;;5069553;28;20056;-67
2022/04/13 05:51:09;;;;;;;44.55;31.52;;;11.00;99.90;;;;;;5069338;28;20756;-66
2022/04/13 05:53:36;;;;;;;46.30;30.02;;;11.10;99.90;;;;;;5068551;28;20102;-67
2022/04/13 05:56:02;;;;;;;53.28;32.90;;;11.10;99.90;;;;;;5069120;28;20065;-67
2022/04/13 05:58:28;;;;;;;38.08;30.27;;;11.10;99.90;;;;;;5063832;28;20086;-67
2022/04/13 06:00:55;;;;;;;44.53;29.38;;;11.20;99.90;;;;;;5062219;28;20497;-67
2022/04/13 06:03:22;;;;;;;40.67;30.88;;;11.20;99.90;;;;;;5068844;28;20035;-67
2022/04/13 06:05:50;;;;;;;46.88;29.08;;;11.30;99.90;;;;;;5068762;28;20837;-66
2022/04/13 06:08:16;;;;;;;46.58;32.42;;;11.30;99.90;;;;;;5068059;28;20489;-67
2022/04/13 06:10:42;;;;;;;51.55;35.40;;;11.40;99.90;;;;;;5063409;28;20102;-66
2022/04/13 06:13:08;;;;;;;45.25;32.58;;;11.40;99.90;;;;;;5069699;28;20048;-67
2022/04/13 06:15:34;;;;;;;44.60;33.15;;;11.50;99.90;;;;;;5068199;28;20036;-66
2022/04/13 06:18:04;;;;;;;44.22;32.53;;;11.50;99.90;;;;;;5067836;28;20048;-67
2022/04/13 06:20:30;;;;;;;45.15;33.75;;;11.50;99.90;;;;;;5067392;28;20151;-67
2022/04/13 06:22:55;;;;;;;43.75;32.78;;;11.50;99.90;;;;;;5059629;28;20129;-67
2022/04/13 06:25:21;;;;;;;49.00;34.65;;;11.60;99.90;;;;;;5047957;28;20053;-66
2022/04/13 06:27:47;;;;;;;47.65;34.45;;;11.60;99.90;;;;;;5049030;28;20041;-66
2022/04/13 06:30:14;;;;;;;54.80;35.05;;;11.70;99.90;;;;;;5057950;28;20044;-67
2022/04/13 06:32:43;;;;;;;53.58;35.00;;;11.70;99.90;;;;;;5068876;28;20048;-66
2022/04/13 06:35:17;;;;;;;51.13;33.60;;;11.90;99.90;;;;;;5069179;28;20049;-66
2022/04/13 06:37:45;;;;;;;45.83;34.22;;;12.00;99.90;;;;;;5068049;28;20044;-66
2022/04/13 06:40:12;;;;;;;52.22;35.10;;;12.10;99.90;;;;;;5068379;28;20540;-67
2022/04/13 06:42:39;;;;;;;55.90;36.83;;;12.30;99.90;;;;;;5068023;28;20067;-67
2022/04/13 06:45:06;;;;;;;48.30;34.05;;;12.40;99.90;;;;;;5068666;28;20051;-67
2022/04/13 06:47:32;;;;;;;42.70;33.67;;;12.50;99.90;;;;;;5068751;28;20588;-67
2022/04/13 06:49:58;;;;;;;50.33;35.72;;;12.70;99.90;;;;;;5066566;28;20090;-67
2022/04/13 06:52:24;;;;;;;49.35;32.85;;;12.80;99.90;;;;;;5067216;28;20052;-67
2022/04/13 06:54:49;;;;;;;55.50;34.08;;;13.00;99.90;;;;;;5068225;28;20040;-73
2022/04/13 06:57:15;;;;;;;47.20;36.47;;;13.20;99.90;;;;;;5066565;28;20494;-72
2022/04/13 06:59:41;;;;;;;52.10;37.45;;;13.30;99.90;;;;;;5063526;28;20051;-71
2022/04/13 07:02:10;;;;;;;48.17;34.08;;;13.50;99.90;;;;;;5065694;28;20413;-72
2022/04/13 07:04:37;;;;;;;46.58;33.40;;;13.70;99.90;;;;;;5067010;28;20444;-71
2022/04/13 07:07:03;;;;;;;49.83;33.63;;;13.90;99.90;;;;;;5066094;28;20047;-72
2022/04/13 07:09:29;;;;;;;46.95;31.08;;;14.10;99.90;;;;;;5048179;28;20041;-72
2022/04/13 07:11:55;;;;;;;43.17;33.28;;;14.30;99.90;;;;;;5047547;28;20037;-72
2022/04/13 07:14:20;;;;;;;49.17;31.60;;;14.50;99.90;;;;;;5048919;28;20144;-72
2022/04/13 07:16:46;;;;;;;43.72;32.05;;;14.50;99.90;;;;;;5049830;28;20053;-72
2022/04/13 07:19:12;;;;;;;42.47;29.98;;;14.60;99.90;;;;;;5052350;28;20044;-72
2022/04/13 07:21:38;;;;;;;48.33;31.40;;;14.80;99.90;;;;;;5068487;28;20128;-72
2022/04/13 07:24:04;;;;;;;49.03;31.70;;;15.00;99.90;;;;;;5069534;28;20053;-73
2022/04/13 07:26:29;;;;;;;41.45;30.17;;;15.30;99.90;;;;;;5070666;28;20060;-72
2022/04/13 07:28:55;;;;;;;50.78;30.23;;;15.50;99.90;;;;;;5071400;28;20052;-76
2022/04/13 07:31:21;;;;;;;45.15;29.35;;;15.70;99.90;;;;;;5071677;28;20139;-73
2022/04/13 07:33:46;;;;;;;41.90;26.75;;;16.00;99.90;;;;;;5071746;28;20383;-73
2022/04/13 07:36:12;;;;;;;36.67;27.25;;;16.20;99.90;;;;;;5070679;28;20550;-73
2022/04/13 07:38:38;;;;;;;40.67;26.70;;;16.50;99.90;;;;;;5063499;28;20144;-74
2022/04/13 07:41:04;;;;;;;42.92;27.17;;;16.80;99.90;;;;;;5070403;28;20040;-75
2022/04/13 07:43:30;;;;;;;40.97;24.05;;;16.90;99.90;;;;;;5071060;28;20059;-72
2022/04/13 07:45:56;;;;;;;34.83;24.27;;;17.10;99.90;;;;;;5072018;28;20048;-74
2022/04/13 07:48:22;;;;;;;137.60;49.85;;;17.10;99.90;;;;;;5055930;28;20048;-76
2022/04/13 07:50:47;;;;;;;280.05;102.82;;;17.30;99.90;;;;;;5068098;28;20052;-73
2022/04/13 07:53:14;;;;;;;103.65;42.30;;;16.90;99.90;;;;;;5069909;28;20448;-76
2022/04/13 07:55:39;;;;;;;54.58;29.02;;;16.80;99.90;;;;;;5070464;28;20898;-75
2022/04/13 07:58:06;;;;;;;39.80;24.17;;;16.80;99.90;;;;;;5069908;28;20048;-76
2022/04/13 08:00:32;;;;;;;36.03;23.00;;;16.80;99.90;;;;;;5070279;28;20199;-74
2022/04/13 08:02:58;;;;;;;35.75;23.05;;;16.80;99.90;;;;;;5070443;28;20047;-75
2022/04/13 08:05:24;;;;;;;36.88;23.90;;;16.80;99.90;;;;;;5070812;28;20053;-74
2022/04/13 08:07:50;;;;;;;41.88;24.65;;;16.70;99.90;;;;;;5070322;28;20094;-76
2022/04/13 08:10:16;;;;;;;34.95;23.30;;;16.60;99.90;;;;;;5071569;28;20135;-75
2022/04/13 08:12:42;;;;;;;43.15;25.20;;;16.50;99.90;;;;;;5069843;28;20109;-75
2022/04/13 08:15:09;;;;;;;41.25;24.30;;;16.40;99.90;;;;;;5053306;28;20049;-75
2022/04/13 08:17:35;;;;;;;40.22;25.42;;;16.40;99.90;;;;;;5054128;28;20040;-75
2022/04/13 08:20:01;;;;;;;32.42;23.42;;;16.30;99.90;;;;;;5069386;28;20055;-75
2022/04/13 08:22:27;;;;;;;38.63;24.38;;;16.40;99.90;;;;;;5064029;28;20402;-75
2022/04/13 08:24:53;;;;;;;30.65;23.02;;;16.40;99.90;;;;;;5064048;28;20051;-76
2022/04/13 08:27:19;;;;;;;36.15;23.92;;;16.40;99.90;;;;;;5069041;28;20041;-76
2022/04/13 08:29:46;;;;;;;36.67;22.88;;;16.30;99.90;;;;;;5071064;28;20040;-75
2022/04/13 08:32:15;;;;;;;42.05;22.40;;;16.30;99.90;;;;;;5070320;28;20047;-75
2022/04/13 08:34:41;;;;;;;25.33;22.10;;;16.30;99.90;;;;;;5068466;28;20454;-75
2022/04/13 08:37:07;;;;;;;37.17;24.55;;;16.30;99.90;;;;;;5070745;28;20161;-75
2022/04/13 08:39:32;;;;;;;37.75;22.58;;;16.30;99.90;;;;;;5068379;28;20071;-75
2022/04/13 08:42:06;;;;;;;34.75;22.65;;;16.20;99.90;;;;;;5051715;28;20044;-76
2022/04/13 08:44:37;;;;;;;30.38;21.42;;;16.20;99.90;;;;;;5069365;28;20061;-76
2022/04/13 08:47:07;;;;;;;37.22;23.38;;;16.20;99.90;;;;;;5070472;28;20047;-76
2022/04/13 08:49:34;;;;;;;30.80;21.88;;;16.10;99.90;;;;;;5068166;28;20052;-76
2022/04/13 08:52:05;;;;;;;31.48;21.40;;;16.20;99.90;;;;;;5064253;28;20033;-76
2022/04/13 08:54:59;;;;;;;34.38;22.67;;;16.60;99.90;;;;;;5066501;28;20165;-77
2022/04/13 08:57:28;;;;;;;36.47;23.73;;;16.80;99.90;;;;;;5041659;28;20498;-77
2022/04/13 09:00:02;;;;;;;31.08;21.15;;;17.00;99.90;;;;;;5066471;28;20079;-76
2022/04/13 09:02:37;;;;;;;29.52;20.48;;;17.20;99.90;;;;;;5051746;28;20040;-78
2022/04/13 09:05:10;;;;;;;28.55;21.08;;;17.30;99.90;;;;;;5060722;28;20045;-78
2022/04/13 09:07:37;;;;;;;32.35;22.23;;;17.60;99.90;;;;;;5063553;28;20049;-78
2022/04/13 09:10:04;;;;;;;33.67;24.50;;;17.70;99.90;;;;;;5068841;28;20484;-77
2022/04/13 09:12:33;;;;;;;37.83;24.33;;;17.80;99.90;;;;;;5068624;28;20044;-77
2022/04/13 09:15:05;;;;;;;33.13;22.73;;;17.90;99.90;;;;;;5068331;28;20056;-78
2022/04/13 09:17:31;;;;;;;28.40;19.02;;;17.80;99.90;;;;;;5069359;28;20505;-78
2022/04/13 09:19:58;;;;;;;31.52;21.60;;;18.00;99.90;;;;;;5069634;28;20048;-78
2022/04/13 09:22:24;;;;;;;31.30;20.13;;;18.10;99.90;;;;;;5069178;28;20893;-78
2022/04/13 09:24:51;;;;;;;28.60;20.58;;;18.30;99.90;;;;;;5069439;28;20071;-78
2022/04/13 09:27:21;;;;;;;29.95;18.83;;;18.50;99.90;;;;;;5070204;28;20707;-79
2022/04/13 09:29:47;;;;;;;28.30;19.13;;;18.60;99.90;;;;;;5070326;28;20044;-79
2022/04/13 09:32:14;;;;;;;21.60;15.00;;;18.60;99.90;;;;;;5069888;28;20059;-79
2022/04/13 09:34:52;;;;;;;26.27;15.38;;;18.70;99.90;;;;;;5077204;28;20500;-78
2022/04/13 09:37:18;;;;;;;;;;;18.90;99.90;;;;;;5075122;28;20076;-78
2022/04/13 09:39:45;;;;;;;68.93;16.10;;;19.00;99.90;;;;;;5064383;28;19967;-79
2022/04/13 09:42:13;;;;;;;23.25;14.75;;;19.10;99.90;;;;;;5070920;28;20073;-79
2022/04/13 09:44:42;;;;;;;18.70;13.13;;;19.20;99.90;;;;;;5069451;28;20053;-79
2022/04/13 09:47:12;;;;;;;18.10;13.23;;;19.20;99.90;;;;;;5069300;28;20040;-79
2022/04/13 09:49:45;;;;;;;26.08;13.40;;;19.20;99.90;;;;;;5070784;28;20124;-76
2022/04/13 09:52:11;;;;;;;21.75;14.23;;;19.40;99.90;;;;;;5052183;28;20451;-77
2022/04/13 09:54:46;;;;;;;24.08;15.13;;;19.50;99.90;;;;;;5050660;28;20049;-78
2022/04/13 09:57:25;;;;;;;25.23;16.55;;;19.70;99.90;;;;;;5049058;28;20045;-78
2022/04/13 09:59:59;;;;;;;23.25;15.30;;;19.80;99.90;;;;;;5049254;28;20067;-78
2022/04/13 10:02:37;;;;;;;28.38;11.68;;;20.00;99.90;;;;;;5057861;28;20413;-78
2022/04/13 10:05:26;;;;;;;20.20;11.90;;;20.20;99.90;;;;;;5053226;28;20052;-77
2022/04/13 10:08:04;;;;;;;16.77;10.80;;;20.20;99.90;;;;;;5067975;28;20063;-78
2022/04/13 10:10:30;;;;;;;17.10;12.50;;;20.40;99.90;;;;;;5069238;28;20544;-78
2022/04/13 10:12:56;;;;;;;19.48;11.43;;;20.40;99.90;;;;;;5067250;28;20055;-78
2022/04/13 10:15:22;;;;;;;17.17;11.85;;;20.40;99.90;;;;;;5057843;28;20513;-78
2022/04/13 10:17:47;;;;;;;17.88;12.98;;;20.40;99.90;;;;;;5049423;28;20060;-77
2022/04/13 10:20:13;;;;;;;19.88;13.05;;;20.30;99.90;;;;;;5054491;28;20076;-78
2022/04/13 10:23:02;;;;;;;22.50;12.55;;;20.40;99.90;;;;;;5068670;28;20049;-76
2022/04/13 10:25:28;;;;;;;19.58;13.50;;;20.50;99.90;;;;;;5069888;28;20135;-77
2022/04/13 10:27:56;;;;;;;19.30;11.45;;;20.60;99.90;;;;;;5068953;28;20044;-76
2022/04/13 10:30:51;;;;;;;24.45;12.75;;;20.80;99.90;;;;;;5071538;28;20612;-78
2022/04/13 10:33:16;;;;;;;45.22;14.50;;;20.80;99.90;;;;;;5053954;28;20584;-77
2022/04/13 10:35:44;;;;;;;20.73;12.02;;;20.70;99.90;;;;;;5048765;28;20155;-76
2022/04/13 10:38:10;;;;;;;14.10;8.77;;;21.00;99.90;;;;;;5049207;28;20098;-76
2022/04/13 10:40:40;;;;;;;18.25;9.00;;;21.00;99.90;;;;;;5049582;28;20060;-77
2022/04/13 10:43:07;;;;;;;9.77;7.43;;;21.10;99.90;;;;;;5048204;28;20048;-77
2022/04/13 10:45:36;;;;;;;16.83;7.22;;;21.10;99.90;;;;;;5048135;28;20102;-77
2022/04/13 10:48:10;;;;;;;14.77;7.65;;;21.20;98.90;;;;;;5066735;28;20074;-78
2022/04/13 10:50:54;;;;;;;16.95;8.82;;;21.10;97.30;;;;;;5070019;28;20727;-77
2022/04/13 10:53:41;;;;;;;14.30;7.97;;;21.10;96.40;;;;;;5068320;28;20044;-77
2022/04/13 10:56:10;;;;;;;13.80;7.28;;;21.00;97.70;;;;;;5064771;28;20060;-77
2022/04/13 10:59:13;;;;;;;14.35;7.28;;;21.00;96.50;;;;;;5070493;28;20098;-77
2022/04/13 11:01:48;;;;;;;9.93;7.07;;;20.90;93.20;;;;;;5072382;28;20080;-77
2022/04/13 11:04:16;;;;;;;14.60;6.97;;;20.80;92.10;;;;;;5074835;28;20699;-77
2022/04/13 11:06:43;;;;;;;12.15;5.35;;;20.80;96.20;;;;;;5071585;28;20804;-77
2022/04/13 11:09:25;;;;;;;10.85;5.85;;;20.70;93.90;;;;;;5071833;28;20436;-77
2022/04/13 11:11:55;;;;;;;29.23;6.30;;;20.90;92.20;;;;;;5069886;28;20044;-78
2022/04/13 11:14:22;;;;;;;11.00;5.13;;;21.00;91.20;;;;;;5071730;28;20079;-78
2022/04/13 11:17:13;;;;;;;9.23;5.43;;;21.00;91.10;;;;;;5072072;28;20165;-78
2022/04/13 11:19:40;;;;;;;5.78;4.32;;;20.90;87.50;;;;;;5070839;28;20783;-77
2022/04/13 11:22:06;;;;;;;8.73;5.55;;;20.80;90.40;;;;;;5072973;28;20088;-78
2022/04/13 11:24:47;;;;;;;9.93;5.20;;;20.60;90.30;;;;;;5069438;28;20452;-77
2022/04/13 11:27:14;;;;;;;13.30;6.22;;;20.60;85.10;;;;;;5054348;28;20082;-76
2022/04/13 11:29:41;;;;;;;10.02;5.70;;;20.50;89.50;;;;;;5069689;28;20041;-77
2022/04/13 11:32:10;;;;;;;12.00;6.28;;;20.40;88.60;;;;;;5060782;28;20049;-78
2022/04/13 11:34:58;;;;;;;8.73;7.30;;;20.30;88.00;;;;;;5053555;28;20095;-78
2022/04/13 11:37:42;;;;;;;13.32;7.07;;;20.20;87.50;;;;;;5051971;28;20045;-77
2022/04/13 11:40:21;;;;;;;16.58;7.68;;;20.20;90.10;;;;;;5051586;28;20047;-77
2022/04/13 11:42:50;;;;;;;12.10;7.28;;;20.20;90.00;;;;;;5057462;28;20115;-77
2022/04/13 11:45:18;;;;;;;12.25;8.40;;;20.20;90.70;;;;;;5071513;28;20566;-78
2022/04/13 11:47:52;;;;;;;17.88;9.00;;;20.20;91.70;;;;;;5071906;28;20051;-77
2022/04/13 11:50:21;;;;;;;17.88;7.50;;;20.20;92.20;;;;;;5069555;28;20044;-76
2022/04/13 11:52:53;;;;;;;11.98;9.40;;;20.20;93.00;;;;;;5054874;28;20060;-77
2022/04/13 11:55:40;;;;;;;11.00;7.43;;;20.10;91.80;;;;;;5071517;28;20123;-76
2022/04/13 11:58:08;;;;;;;13.20;7.93;;;20.00;92.20;;;;;;5068261;28;20092;-76
2022/04/13 12:00:43;;;;;;;8.13;6.93;;;20.00;92.30;;;;;;5072294;28;20382;-76
2022/04/13 12:03:25;;;;;;;14.90;6.80;;;19.90;92.00;;;;;;5061861;28;20043;-78
2022/04/13 12:05:53;;;;;;;10.38;6.10;;;19.70;91.20;;;;;;5066482;28;20067;-74
2022/04/13 12:08:25;;;;;;;6.63;5.53;;;19.70;91.80;;;;;;5070508;28;20075;-76
2022/04/13 12:11:03;;;;;;;10.13;5.68;;;19.70;90.30;;;;;;5079759;28;20468;-76
2022/04/13 12:13:33;;;;;;;14.27;6.38;;;19.60;90.40;;;;;;5066123;28;20047;-74
2022/04/13 12:16:00;;;;;;;7.32;6.32;;;19.60;90.80;;;;;;5067620;28;20082;-74
2022/04/13 12:18:27;;;;;;;14.25;7.22;;;19.50;90.40;;;;;;5054264;28;20054;-78
2022/04/13 12:21:05;;;;;;;9.95;6.57;;;19.50;90.40;;;;;;5066886;28;20607;-77
2022/04/13 12:23:35;;;;;;;10.00;7.20;;;19.70;90.50;;;;;;5070734;28;20048;-78
2022/04/13 12:26:01;;;;;;;14.38;7.55;;;19.70;90.90;;;;;;5070836;28;20516;-77
2022/04/13 12:28:27;;;;;;;19.88;8.20;;;19.90;91.20;;;;;;5067067;28;20177;-78
2022/04/13 12:30:58;;;;;;;18.00;9.23;;;19.80;90.70;;;;;;5072041;28;20098;-76
2022/04/13 12:33:25;;;;;;;23.50;9.95;;;19.90;91.30;;;;;;5071060;28;20053;-78
2022/04/13 12:36:03;;;;;;;18.92;8.85;;;19.90;91.30;;;;;;5067646;28;20044;-76